Time;durP1;ratioP1;P1;durP2;ratioP2;P2;SDS_P1;SDS_P2;PMS_P1;PMS_P2;Temp;Humidity;BMP_temperature;BMP_pressure;BME280_temperature;BME280_humidity;BME280_pressure;Samples;Min_cycle;Max_cycle;Signal;HPM_P1;HPM_P2
2023/03/08 00:00:04;;;;;;;4.57;2.50;;;;;;;4.70;67.47;100168.63;5012210;28;20022;-47
2023/03/08 00:02:29;;;;;;;4.82;2.25;;;;;;;4.63;67.36;100161.59;5015462;28;20053;-44
2023/03/08 00:04:55;;;;;;;4.78;2.33;;;;;;;4.60;66.96;100160.63;4986544;28;20417;-44
2023/03/08 00:07:21;;;;;;;4.68;2.25;;;;;;;4.55;66.81;100167.38;5004943;28;20399;-44
2023/03/08 00:09:46;;;;;;;5.20;2.35;;;;;;;4.47;67.05;100164.59;5004960;28;20046;-43
2023/03/08 00:12:12;;;;;;;5.22;2.30;;;;;;;4.42;67.10;100161.88;4983638;28;20514;-48
2023/03/08 00:14:37;;;;;;;6.13;2.38;;;;;;;4.39;67.08;100160.94;5005087;28;20161;-44
2023/03/08 00:17:03;;;;;;;5.20;2.55;;;;;;;4.30;66.77;100158.97;5004446;28;20026;-45
2023/03/08 00:19:28;;;;;;;5.28;2.25;;;;;;;4.24;67.37;100156.25;5007846;28;20112;-46
2023/03/08 00:21:54;;;;;;;4.35;2.35;;;;;;;4.22;67.15;100162.19;5004915;28;20038;-46
2023/03/08 00:24:19;;;;;;;4.30;2.47;;;;;;;4.20;67.41;100159.59;5003882;28;20030;-44
2023/03/08 00:26:44;;;;;;;7.85;2.60;;;;;;;4.22;67.68;100160.47;4986006;28;20038;-48
2023/03/08 00:29:10;;;;;;;6.07;2.65;;;;;;;4.21;67.80;100163.88;4999419;28;20044;-43
2023/03/08 00:31:35;;;;;;;8.10;3.00;;;;;;;4.20;67.46;100158.69;5003422;28;20052;-44
2023/03/08 00:34:01;;;;;;;7.50;2.70;;;;;;;4.22;67.84;100157.88;5000683;28;20468;-42
2023/03/08 00:36:26;;;;;;;5.93;2.95;;;;;;;4.16;68.21;100149.97;5010423;28;20133;-45
2023/03/08 00:38:52;;;;;;;5.35;2.88;;;;;;;4.18;67.85;100147.47;5001359;28;20041;-45
2023/03/08 00:41:17;;;;;;;5.80;2.63;;;;;;;4.11;67.49;100142.97;5003469;28;20084;-45
2023/03/08 00:43:44;;;;;;;5.20;2.55;;;;;;;4.11;67.38;100133.50;5006601;28;20309;-43
2023/03/08 00:46:10;;;;;;;7.78;2.85;;;;;;;4.11;67.38;100141.25;5005309;28;20034;-43
2023/03/08 00:48:35;;;;;;;4.78;2.60;;;;;;;4.11;67.28;100130.06;5008315;28;20022;-44
2023/03/08 00:51:01;;;;;;;5.53;2.78;;;;;;;4.08;67.37;100125.72;5003703;28;20026;-44
2023/03/08 00:53:26;;;;;;;5.00;2.65;;;;;;;4.05;67.21;100121.31;5008407;28;20518;-44
2023/03/08 00:55:55;;;;;;;3.90;2.70;;;;;;;4.07;67.96;100127.41;5003812;28;20037;-45
2023/03/08 00:58:20;;;;;;;7.30;3.00;;;;;;;4.09;67.53;100136.03;5009586;28;20034;-45
2023/03/08 01:00:47;;;;;;;5.75;2.55;;;;;;;4.13;67.31;100133.56;5011302;28;20080;-43
2023/03/08 01:03:13;;;;;;;6.38;3.08;;;;;;;4.10;67.71;100124.03;5004176;28;20044;-47
2023/03/08 01:05:44;;;;;;;5.95;3.00;;;;;;;4.22;68.26;100124.34;5007071;28;20085;-48
2023/03/08 01:08:10;;;;;;;8.90;3.05;;;;;;;4.27;68.58;100115.03;5003262;28;20117;-44
2023/03/08 01:10:35;;;;;;;6.97;3.28;;;;;;;4.33;68.39;100111.75;5008411;28;20399;-47
2023/03/08 01:13:01;;;;;;;8.68;3.35;;;;;;;4.44;68.39;100118.06;5006707;28;20037;-43
2023/03/08 01:15:26;;;;;;;8.25;3.45;;;;;;;4.30;68.38;100116.81;5009620;28;20042;-44
2023/03/08 01:17:52;;;;;;;8.57;3.70;;;;;;;4.07;68.79;100118.81;4987678;28;20037;-45
2023/03/08 01:20:17;;;;;;;8.70;3.80;;;;;;;4.12;69.58;100117.22;5007035;28;20041;-45
2023/03/08 01:22:42;;;;;;;9.05;2.72;;;;;;;4.45;68.60;100112.06;5006900;28;20124;-44
2023/03/08 01:25:08;;;;;;;7.65;2.75;;;;;;;4.71;68.09;100108.41;5002853;28;20037;-44
2023/03/08 01:27:34;;;;;;;9.48;2.90;;;;;;;4.75;67.92;100106.81;5007179;28;20026;-46
2023/03/08 01:29:59;;;;;;;8.75;2.50;;;;;;;4.15;67.87;100114.69;4986108;28;20034;-43
2023/03/08 01:32:24;;;;;;;8.15;2.53;;;;;;;4.38;67.78;100107.59;5007519;28;20038;-45
2023/03/08 01:34:50;;;;;;;5.75;1.70;;;;;;;4.45;68.18;100109.50;5000756;23;20042;-38
2023/03/08 01:37:15;;;;;;;4.75;1.50;;;;;;;4.47;68.39;100106.09;5000780;28;20034;-39
2023/03/08 01:39:41;;;;;;;3.90;0.80;;;;;;;4.60;68.27;100102.13;5004269;28;20053;-39
2023/03/08 01:42:06;;;;;;;1.33;0.60;;;;;;;5.02;66.69;100086.78;5000671;28;20041;-39
2023/03/08 01:44:56;;;;;;;2.50;0.60;;;;;;;5.17;65.67;100079.38;5004608;28;20081;-38
2023/03/08 01:47:24;;;;;;;5.93;0.57;;;;;;;5.18;65.66;100072.50;5000948;28;20034;-39
2023/03/08 01:49:53;;;;;;;1.55;0.70;;;;;;;5.31;65.22;100065.03;5003436;28;20042;-39
2023/03/08 01:52:24;;;;;;;2.65;0.52;;;;;;;5.25;64.79;100061.44;5002936;28;20045;-40
2023/03/08 01:55:02;;;;;;;1.42;0.40;;;;;;;5.30;64.70;100060.72;5002808;28;20053;-38
2023/03/08 01:57:33;;;;;;;2.95;0.50;;;;;;;5.28;64.87;100057.22;5007629;28;20050;-39
2023/03/08 02:00:10;;;;;;;1.30;0.40;;;;;;;5.24;64.66;100057.13;5004777;28;20026;-39
2023/03/08 02:02:42;;;;;;;1.40;0.52;;;;;;;5.11;64.98;100048.25;5008644;28;20026;-38
2023/03/08 02:05:09;;;;;;;2.25;0.63;;;;;;;5.05;65.01;100042.06;5006174;28;20030;-38
2023/03/08 02:07:34;;;;;;;2.40;0.70;;;;;;;5.11;65.12;100039.63;5010379;28;20128;-39
2023/03/08 02:10:00;;;;;;;1.88;0.50;;;;;;;5.10;65.13;100038.75;5006551;28;20068;-39
2023/03/08 02:12:26;;;;;;;1.95;0.65;;;;;;;5.05;64.60;100030.03;5011341;28;20034;-40
2023/03/08 02:14:51;;;;;;;1.48;0.60;;;;;;;5.04;64.82;100027.41;5004828;28;20034;-39
2023/03/08 02:17:17;;;;;;;0.95;0.60;;;;;;;4.96;65.04;100018.59;5007836;28;20041;-39
2023/03/08 02:19:50;;;;;;;2.78;0.60;;;;;;;4.86;65.17;100014.97;5008390;28;20029;-38
2023/03/08 02:22:16;;;;;;;3.17;0.50;;;;;;;4.81;65.53;100014.84;5004731;28;20034;-40
2023/03/08 02:24:41;;;;;;;1.98;0.80;;;;;;;4.73;65.26;100018.97;5008824;28;20038;-37
2023/03/08 02:27:13;;;;;;;2.13;0.63;;;;;;;4.77;65.54;100005.28;5002909;28;20037;-40
2023/03/08 02:29:39;;;;;;;1.73;0.60;;;;;;;4.78;65.29;99995.81;5008030;28;20030;-38
2023/03/08 02:32:04;;;;;;;1.80;0.63;;;;;;;4.68;65.42;99993.88;5004978;28;20096;-40
2023/03/08 02:34:30;;;;;;;2.65;0.68;;;;;;;4.70;65.19;99995.66;5008163;28;20034;-38
2023/03/08 02:36:55;;;;;;;2.40;0.57;;;;;;;4.61;65.32;99995.44;5001522;28;20065;-38
2023/03/08 02:39:20;;;;;;;2.97;0.70;;;;;;;4.57;65.57;100003.09;5003466;28;20026;-38
2023/03/08 02:41:46;;;;;;;3.53;0.85;;;;;;;4.49;65.50;100003.78;5003121;28;20576;-38
2023/03/08 02:44:11;;;;;;;1.58;0.50;;;;;;;4.43;66.12;99995.91;4998732;28;20586;-39
2023/03/08 02:46:36;;;;;;;2.22;0.82;;;;;;;4.37;65.41;99994.88;5003092;28;20034;-38
2023/03/08 02:49:02;;;;;;;1.60;0.80;;;;;;;4.30;65.45;100003.28;4998948;28;20037;-38
2023/03/08 02:51:27;;;;;;;1.80;0.90;;;;;;;4.27;66.12;100005.81;5002904;28;20037;-41
2023/03/08 02:53:53;;;;;;;3.47;1.80;;;;;;;4.24;66.46;100013.47;4999011;28;20033;-38
2023/03/08 02:56:19;;;;;;;4.35;2.40;;;;;;;4.22;66.19;100016.00;5003011;28;20058;-37
2023/03/08 02:58:44;;;;;;;5.85;2.35;;;;;;;4.23;66.66;100017.75;5002853;28;20180;-40
2023/03/08 03:01:11;;;;;;;5.00;2.35;;;;;;;4.23;66.02;100011.72;4999353;28;20033;-38
2023/03/08 03:03:37;;;;;;;3.80;2.35;;;;;;;4.22;65.84;99999.66;5002697;28;20038;-40
2023/03/08 03:06:03;;;;;;;4.53;2.40;;;;;;;4.20;65.67;99997.06;5001099;28;20373;-40
2023/03/08 03:08:29;;;;;;;4.90;2.35;;;;;;;4.14;66.52;99989.16;5006860;28;20053;-39
2023/03/08 03:10:55;;;;;;;5.00;2.42;;;;;;;4.14;66.22;99980.53;5004419;28;20087;-40
2023/03/08 03:13:20;;;;;;;4.13;2.60;;;;;;;4.14;66.06;99971.09;5015393;28;20033;-39
2023/03/08 03:15:45;;;;;;;6.30;3.08;;;;;;;4.16;66.72;99960.81;5015984;28;20048;-38
2023/03/08 03:18:11;;;;;;;6.50;3.17;;;;;;;4.14;66.39;99962.50;5020116;28;20030;-39
2023/03/08 03:20:36;;;;;;;6.15;3.30;;;;;;;4.13;66.37;99959.03;5016792;28;20098;-38
2023/03/08 03:23:02;;;;;;;5.93;3.33;;;;;;;4.12;66.92;99954.72;5006064;28;20030;-41
2023/03/08 03:25:27;;;;;;;6.57;3.30;;;;;;;4.15;67.23;99952.19;5007297;28;20499;-39
2023/03/08 03:27:54;;;;;;;6.50;3.45;;;;;;;4.19;66.60;99945.41;5002047;28;20388;-38
2023/03/08 03:30:19;;;;;;;5.90;3.25;;;;;;;4.23;66.73;99940.34;5003495;28;20108;-39
2023/03/08 03:32:44;;;;;;;7.15;3.40;;;;;;;4.25;66.85;99930.09;5002095;28;20030;-38
2023/03/08 03:35:10;;;;;;;6.00;3.30;;;;;;;4.26;66.67;99919.81;4998411;28;20041;-38
2023/03/08 03:37:36;;;;;;;6.30;3.70;;;;;;;4.31;66.85;99914.75;5001982;28;20077;-38
2023/03/08 03:40:03;;;;;;;7.63;3.90;;;;;;;4.32;66.12;99912.19;4997999;28;20112;-38
2023/03/08 03:42:28;;;;;;;6.72;3.63;;;;;;;4.32;66.75;99919.94;5005783;28;20038;-36
2023/03/08 03:44:54;;;;;;;8.85;3.92;;;;;;;4.24;66.99;99912.84;5005145;28;20034;-38
2023/03/08 03:47:19;;;;;;;7.13;3.95;;;;;;;4.20;66.77;99913.63;5008447;28;20050;-38
2023/03/08 03:49:44;;;;;;;8.55;4.10;;;;;;;4.23;67.30;99921.41;5008371;28;20458;-36
2023/03/08 03:52:10;;;;;;;9.18;3.70;;;;;;;4.21;67.07;99926.53;4998498;28;20030;-38
2023/03/08 03:54:35;;;;;;;6.68;3.70;;;;;;;4.24;67.31;99925.75;5002586;28;20053;-40
2023/03/08 03:57:00;;;;;;;8.63;4.13;;;;;;;4.24;66.81;99921.47;4999291;28;20030;-41
2023/03/08 03:59:26;;;;;;;7.13;4.00;;;;;;;4.22;66.75;99911.94;5003451;28;20295;-38
2023/03/08 04:01:51;;;;;;;10.02;4.25;;;;;;;4.21;66.60;99907.63;4980474;28;20488;-38
2023/03/08 04:04:17;;;;;;;6.15;3.97;;;;;;;4.12;66.47;99905.69;5001408;28;20045;-40
2023/03/08 04:06:42;;;;;;;6.10;3.92;;;;;;;4.13;66.78;99912.59;4984572;28;20037;-38
2023/03/08 04:09:13;;;;;;;8.75;4.43;;;;;;;4.09;66.45;99906.50;4998244;28;20531;-39
2023/03/08 04:11:39;;;;;;;7.80;4.32;;;;;;;4.04;66.81;99897.78;5001365;28;20112;-39
2023/03/08 04:14:05;;;;;;;10.82;4.75;;;;;;;4.06;66.75;99895.25;4998307;28;20125;-38
2023/03/08 04:16:33;;;;;;;9.38;4.80;;;;;;;4.02;66.81;99891.72;5001807;28;20034;-38
2023/03/08 04:19:01;;;;;;;9.38;5.22;;;;;;;3.99;66.79;99894.22;4998495;28;20029;-38
2023/03/08 04:21:27;;;;;;;10.82;6.13;;;;;;;4.11;67.39;99879.88;5001540;28;20092;-39
2023/03/08 04:23:53;;;;;;;9.32;5.60;;;;;;;4.05;67.21;99870.28;4997461;28;20129;-38
2023/03/08 04:26:20;;;;;;;12.88;7.03;;;;;;;4.16;67.15;99875.69;4983903;28;20046;-39
2023/03/08 04:28:45;;;;;;;11.35;6.53;;;;;;;3.90;68.07;99885.41;5001197;28;20399;-39
2023/03/08 04:31:22;;;;;;;14.00;7.15;;;;;;;3.91;67.72;99875.09;4997717;28;20120;-39
2023/03/08 04:33:48;;;;;;;11.90;6.47;;;;;;;4.13;67.24;99873.91;5000144;28;20084;-37
2023/03/08 04:36:15;;;;;;;12.35;6.65;;;;;;;4.01;67.54;99869.34;4997564;28;20037;-39
2023/03/08 04:38:41;;;;;;;14.57;7.28;;;;;;;4.12;67.10;99872.16;5001493;28;20030;-39
2023/03/08 04:41:13;;;;;;;12.73;7.35;;;;;;;4.12;67.56;99863.56;4997734;28;20404;-38
2023/03/08 04:43:49;;;;;;;12.13;7.75;;;;;;;4.08;67.20;99866.09;5001014;28;20459;-39
2023/03/08 04:46:15;;;;;;;13.98;8.13;;;;;;;4.17;67.37;99869.69;4997824;28;20030;-37
2023/03/08 04:48:41;;;;;;;12.77;8.50;;;;;;;4.23;67.42;99865.53;5001211;28;20088;-41
2023/03/08 04:51:09;;;;;;;18.52;9.65;;;;;;;4.13;67.85;99855.88;4997534;28;20535;-37
2023/03/08 04:53:35;;;;;;;18.20;10.43;;;;;;;4.10;67.83;99855.78;5001340;28;20030;-38
2023/03/08 04:56:00;;;;;;;20.80;11.48;;;;;;;4.14;67.87;99855.03;4997626;28;20040;-40
2023/03/08 04:58:27;;;;;;;22.98;11.52;;;;;;;4.22;68.06;99844.84;4985854;28;20034;-36
2023/03/08 05:00:52;;;;;;;23.05;11.80;;;;;;;4.19;67.76;99829.34;5002877;28;20102;-39
2023/03/08 05:03:18;;;;;;;21.70;12.27;;;;;;;4.33;67.64;99817.63;5004613;28;20069;-39
2023/03/08 05:05:52;;;;;;;22.55;12.70;;;;;;;4.43;67.44;99822.13;5003916;28;20407;-38
2023/03/08 05:08:18;;;;;;;22.20;12.45;;;;;;;4.39;67.81;99815.16;4980547;28;20042;-38
2023/03/08 05:10:58;;;;;;;25.10;14.02;;;;;;;4.56;67.04;99806.06;4983909;28;20040;-38
2023/03/08 05:13:24;;;;;;;25.60;14.07;;;;;;;4.57;67.57;99806.94;4998117;28;20125;-37
2023/03/08 05:15:49;;;;;;;26.85;13.90;;;;;;;4.57;67.69;99805.22;5001793;28;20579;-38
2023/03/08 05:18:15;;;;;;;29.85;15.18;;;;;;;4.47;67.98;99801.56;5005967;28;20117;-38
2023/03/08 05:20:40;;;;;;;26.50;14.85;;;;;;;4.61;67.80;99791.53;5004531;28;20029;-37
2023/03/08 05:23:06;;;;;;;29.75;16.17;;;;;;;4.58;67.93;99772.50;4997434;28;20034;-40
2023/03/08 05:25:32;;;;;;;31.80;16.90;;;;;;;4.60;67.57;99758.81;5002137;28;20034;-38
2023/03/08 05:27:58;;;;;;;34.20;17.73;;;;;;;4.58;68.17;99750.16;5003180;28;20500;-37
2023/03/08 05:30:23;;;;;;;33.72;17.25;;;;;;;4.66;68.40;99742.56;5005417;28;20038;-38
2023/03/08 05:32:48;;;;;;;32.20;16.98;;;;;;;4.60;67.92;99745.03;5002545;28;20041;-42
2023/03/08 05:35:14;;;;;;;32.60;18.05;;;;;;;4.59;68.70;99743.28;5002818;28;20410;-40
2023/03/08 05:37:39;;;;;;;36.72;19.10;;;;;;;4.61;68.28;99737.31;5002042;28;20033;-39
2023/03/08 05:40:05;;;;;;;36.22;18.80;;;;;;;4.76;67.94;99740.16;4998623;28;20306;-38
2023/03/08 05:42:33;;;;;;;39.72;19.10;;;;;;;4.60;68.39;99747.59;5002145;28;20033;-38
2023/03/08 05:44:59;;;;;;;40.42;20.38;;;;;;;4.72;68.30;99733.22;4999510;28;20038;-38
2023/03/08 05:47:24;;;;;;;42.25;20.70;;;;;;;4.72;68.53;99729.75;5004738;28;20045;-39
2023/03/08 05:49:50;;;;;;;39.33;19.95;;;;;;;4.85;68.34;99724.84;5000435;28;20117;-39
2023/03/08 05:52:15;;;;;;;44.33;22.02;;;;;;;4.78;68.53;99719.53;5004593;28;20030;-39
2023/03/08 05:54:40;;;;;;;46.08;22.80;;;;;;;4.61;69.21;99720.97;5004225;28;20037;-38
2023/03/08 05:57:06;;;;;;;44.00;21.48;;;;;;;4.73;68.40;99716.00;5000260;28;20496;-38
2023/03/08 05:59:31;;;;;;;46.17;22.10;;;;;;;4.59;69.22;99717.47;5003974;28;20030;-39
2023/03/08 06:01:56;;;;;;;46.13;22.77;;;;;;;4.78;68.87;99715.25;5000879;28;20490;-39
2023/03/08 06:04:22;;;;;;;48.92;23.50;;;;;;;4.72;68.49;99707.41;5003844;28;20036;-39
2023/03/08 06:06:47;;;;;;;47.33;22.60;;;;;;;4.78;68.61;99704.94;5003728;28;20065;-37
2023/03/08 06:09:12;;;;;;;46.38;22.00;;;;;;;4.65;69.41;99705.53;5001844;28;20447;-39
2023/03/08 06:11:38;;;;;;;50.35;23.77;;;;;;;4.73;68.70;99697.94;5005355;28;20022;-38
2023/03/08 06:14:03;;;;;;;47.70;22.75;;;;;;;4.70;68.56;99701.31;5001626;28;20064;-39
2023/03/08 06:16:29;;;;;;;44.85;22.02;;;;;;;4.57;69.01;99708.84;5007113;28;20034;-43
2023/03/08 06:18:54;;;;;;;50.22;23.80;;;;;;;4.30;70.00;99717.78;5007646;28;20026;-39
2023/03/08 06:21:20;;;;;;;47.67;23.27;;;;;;;4.54;69.56;99712.22;5016201;28;20040;-40
2023/03/08 06:23:46;;;;;;;44.95;21.95;;;;;;;4.54;69.71;99712.22;5020779;28;20026;-40
2023/03/08 06:26:13;;;;;;;45.20;22.33;;;;;;;4.56;69.37;99720.00;4997724;28;20041;-40
2023/03/08 06:28:41;;;;;;;48.58;21.98;;;;;;;4.42;70.27;99705.13;5012069;28;20037;-38
2023/03/08 06:31:10;;;;;;;43.33;21.48;;;;;;;4.63;69.36;99711.53;5007937;28;20026;-40
2023/03/08 06:33:35;;;;;;;48.95;22.27;;;;;;;4.48;69.91;99710.41;5011624;28;20030;-40
2023/03/08 06:36:04;;;;;;;44.08;22.20;;;;;;;4.71;68.77;99705.66;5006759;28;20133;-38
2023/03/08 06:38:32;;;;;;;47.78;22.58;;;;;;;4.62;69.64;99712.38;5012512;28;20125;-41
2023/03/08 06:40:58;;;;;;;51.22;23.30;;;;;;;4.73;69.26;99710.84;5010387;28;20034;-39
2023/03/08 06:43:24;;;;;;;45.72;22.55;;;;;;;4.72;69.58;99704.81;5012923;28;20050;-39
2023/03/08 06:45:49;;;;;;;56.08;23.75;;;;;;;4.72;69.54;99702.25;5007480;28;20042;-39
2023/03/08 06:48:15;;;;;;;51.45;24.35;;;;;;;4.67;69.76;99705.56;5008175;28;20084;-39
2023/03/08 06:50:41;;;;;;;49.03;23.63;;;;;;;4.57;69.78;99706.25;5008335;28;20030;-40
2023/03/08 06:53:06;;;;;;;48.63;23.58;;;;;;;4.68;69.42;99697.88;5001208;28;20026;-39
2023/03/08 06:55:34;;;;;;;49.15;24.90;;;;;;;4.77;68.97;99702.31;5001558;28;20447;-39
2023/03/08 06:57:59;;;;;;;50.47;23.85;;;;;;;4.44;69.99;99700.00;4998843;28;20420;-39
2023/03/08 07:00:25;;;;;;;49.50;23.45;;;;;;;4.66;69.77;99699.53;5003417;28;20052;-39
2023/03/08 07:02:50;;;;;;;52.25;23.90;;;;;;;4.56;70.06;99689.91;4998282;28;20046;-39
2023/03/08 07:05:15;;;;;;;54.13;25.05;;;;;;;4.41;70.24;99693.06;5003221;28;20052;-39
2023/03/08 07:07:42;;;;;;;51.45;25.48;;;;;;;4.52;70.19;99692.38;5003107;28;20381;-38
2023/03/08 07:10:15;;;;;;;51.33;26.25;;;;;;;4.75;69.28;99691.09;4998776;28;20095;-38
2023/03/08 07:12:42;;;;;;;51.33;24.48;;;;;;;4.85;69.26;99680.97;4984091;28;20037;-40
2023/03/08 07:15:13;;;;;;;56.00;26.17;;;;;;;5.03;68.71;99677.81;4997331;28;20514;-38
2023/03/08 07:17:40;;;;;;;52.45;25.33;;;;;;;5.06;69.04;99682.16;5003655;28;20040;-39
2023/03/08 07:20:06;;;;;;;50.13;25.35;;;;;;;5.14;68.50;99680.56;4999691;28;20113;-39
2023/03/08 07:22:32;;;;;;;49.00;24.63;;;;;;;5.06;68.55;99679.59;5003231;28;20030;-39
2023/03/08 07:24:57;;;;;;;50.60;25.77;;;;;;;5.11;68.45;99678.81;4999961;28;20057;-40
2023/03/08 07:27:23;;;;;;;51.10;25.23;;;;;;;4.74;69.11;99671.28;5003270;28;20108;-38
2023/03/08 07:29:49;;;;;;;49.33;25.02;;;;;;;5.02;68.40;99668.31;5003698;28;20048;-39
2023/03/08 07:32:14;;;;;;;51.35;25.80;;;;;;;5.11;68.44;99667.59;5003138;28;20030;-38
2023/03/08 07:34:39;;;;;;;53.33;25.73;;;;;;;5.12;68.46;99666.75;4997206;28;20057;-38
2023/03/08 07:37:13;;;;;;;50.90;26.63;;;;;;;5.11;68.73;99667.59;5003738;28;20034;-39
2023/03/08 07:39:38;;;;;;;53.92;26.33;;;;;;;5.08;68.71;99667.53;5008858;28;20041;-37
2023/03/08 07:42:04;;;;;;;48.78;25.23;;;;;;;5.29;67.86;99654.97;5005320;28;20030;-37
2023/03/08 07:44:29;;;;;;;49.20;24.42;;;;;;;5.43;68.25;99662.94;5008322;28;20127;-43
2023/03/08 07:46:55;;;;;;;49.80;24.90;;;;;;;5.49;67.72;99663.03;5005913;28;20055;-40
2023/03/08 07:49:20;;;;;;;54.38;26.50;;;;;;;5.05;68.63;99672.69;5006623;28;20137;-36
2023/03/08 07:51:48;;;;;;;51.72;25.25;;;;;;;5.19;68.74;99668.56;5004066;28;20033;-37
2023/03/08 07:54:13;;;;;;;50.78;25.20;;;;;;;5.45;67.91;99668.97;5003472;28;20121;-37
2023/03/08 07:56:39;;;;;;;54.47;25.52;;;;;;;5.46;67.51;99665.53;5004812;28;20049;-38
2023/03/08 07:59:04;;;;;;;53.45;25.95;;;;;;;5.64;67.08;99658.06;5000121;28;20033;-41
2023/03/08 08:01:31;;;;;;;54.72;26.48;;;;;;;4.86;68.78;99653.41;5005140;28;20034;-44
2023/03/08 08:03:58;;;;;;;63.92;28.23;;;;;;;5.29;68.32;99648.09;5003682;28;20037;-39
2023/03/08 08:06:23;;;;;;;69.13;28.38;;;;;;;5.55;67.53;99645.84;5004906;28;20080;-39
2023/03/08 08:08:49;;;;;;;74.32;30.85;;;;;;;5.45;67.78;99646.59;5002897;28;20046;-39
2023/03/08 08:11:16;;;;;;;73.57;29.73;;;;;;;5.38;67.96;99644.75;5000491;28;20045;-38
2023/03/08 08:13:41;;;;;;;64.60;28.00;;;;;;;5.47;67.52;99644.03;5009887;28;20044;-38
2023/03/08 08:16:07;;;;;;;63.72;27.83;;;;;;;5.25;68.10;99645.41;5005569;28;20049;-39
2023/03/08 08:18:34;;;;;;;61.72;27.02;;;;;;;5.52;67.55;99644.97;5009705;28;20037;-38
2023/03/08 08:21:10;;;;;;;55.22;25.55;;;;;;;5.54;67.25;99649.31;5005516;28;20117;-41
2023/03/08 08:23:36;;;;;;;56.95;25.15;;;;;;;5.57;66.59;99639.00;5008852;28;20069;-40
2023/03/08 08:26:10;;;;;;;60.05;25.38;;;;;;;5.71;66.41;99645.22;5004679;28;20173;-39
2023/03/08 08:28:40;;;;;;;58.05;25.08;;;;;;;5.52;66.95;99635.47;5003223;28;20448;-37
2023/03/08 08:31:08;;;;;;;47.22;22.20;;;;;;;5.32;66.94;99648.13;4998915;28;20034;-37
2023/03/08 08:33:34;;;;;;;50.88;23.42;;;;;;;5.86;66.08;99639.38;5002859;28;20157;-36
2023/03/08 08:36:03;;;;;;;47.78;23.02;;;;;;;5.90;65.95;99638.59;4998980;28;20188;-40
2023/03/08 08:38:28;;;;;;;45.70;22.10;;;;;;;5.91;65.67;99630.00;5003718;28;20045;-36
2023/03/08 08:40:53;;;;;;;48.10;22.08;;;;;;;5.58;66.63;99630.41;5001822;28;20037;-37
2023/03/08 08:43:19;;;;;;;45.70;21.98;;;;;;;5.65;66.35;99623.59;5007238;28;20038;-37
2023/03/08 08:45:54;;;;;;;41.53;21.08;;;;;;;5.92;65.65;99613.59;5007516;28;20097;-42
2023/03/08 08:48:20;;;;;;;43.75;21.10;;;;;;;5.83;65.55;99630.72;5003742;28;20467;-37
2023/03/08 08:50:45;;;;;;;42.92;21.45;;;;;;;6.06;65.55;99631.88;5008193;28;20045;-37
2023/03/08 08:53:10;;;;;;;45.88;21.50;;;;;;;5.90;66.10;99620.50;5003846;28;20201;-38
2023/03/08 08:55:36;;;;;;;40.38;20.33;;;;;;;5.84;65.90;99619.53;5008104;28;20053;-38
2023/03/08 08:58:02;;;;;;;36.80;19.33;;;;;;;6.07;64.93;99615.53;5004243;28;20061;-38
2023/03/08 09:00:28;;;;;;;39.03;18.58;;;;;;;6.29;64.73;99603.66;5008260;28;20396;-38
2023/03/08 09:02:53;;;;;;;35.97;18.88;;;;;;;5.93;65.10;99607.59;5004895;28;20030;-40
2023/03/08 09:05:19;;;;;;;36.13;18.40;;;;;;;5.48;66.20;99619.94;5005988;28;20046;-39
2023/03/08 09:07:44;;;;;;;36.38;17.70;;;;;;;5.53;66.32;99608.78;5007491;28;20067;-38
2023/03/08 09:10:10;;;;;;;37.05;17.67;;;;;;;5.44;66.59;99603.47;5004411;28;20540;-39
2023/03/08 09:12:36;;;;;;;35.55;17.27;;;;;;;5.62;66.71;99590.81;5007765;28;20037;-40
2023/03/08 09:15:02;;;;;;;31.10;16.38;;;;;;;5.75;65.93;99584.06;5005148;28;20041;-44
2023/03/08 09:17:28;;;;;;;33.22;16.52;;;;;;;5.77;65.83;99584.97;5008024;28;20033;-43
2023/03/08 09:19:53;;;;;;;33.25;16.30;;;;;;;5.94;65.51;99582.59;5001698;28;20034;-40
2023/03/08 09:22:18;;;;;;;33.13;16.25;;;;;;;5.95;64.69;99580.03;5006528;28;20068;-36
2023/03/08 09:24:47;;;;;;;33.47;16.75;;;;;;;6.31;64.97;99581.25;5005815;28;20129;-40
2023/03/08 09:27:12;;;;;;;32.92;16.10;;;;;;;6.02;65.80;99570.63;5000822;28;20107;-39
2023/03/08 09:29:37;;;;;;;28.90;15.30;;;;;;;5.70;65.96;99577.97;5004568;28;20576;-38
2023/03/08 09:32:04;;;;;;;31.13;15.75;;;;;;;5.93;65.57;99571.38;5000421;28;20048;-38
2023/03/08 09:34:29;;;;;;;28.95;15.07;;;;;;;6.18;64.98;99564.75;5005297;28;20037;-38
2023/03/08 09:36:54;;;;;;;31.08;15.45;;;;;;;6.34;64.59;99560.59;5003269;28;20029;-40
2023/03/08 09:39:20;;;;;;;33.67;16.65;;;;;;;6.57;63.00;99563.38;5005740;28;20131;-38
2023/03/08 09:41:53;;;;;;;29.35;15.75;;;;;;;6.80;63.18;99570.47;5005228;28;20026;-37
2023/03/08 09:44:50;;;;;;;27.48;14.55;;;;;;;6.33;62.64;99571.81;5001186;28;20030;-38
2023/03/08 09:47:22;;;;;;;30.35;15.70;;;;;;;6.32;62.96;99577.81;5000957;28;20500;-38
2023/03/08 09:49:51;;;;;;;30.45;15.20;;;;;;;6.03;63.78;99572.38;5005297;28;20125;-38
2023/03/08 09:52:32;;;;;;;28.33;13.57;;;;;;;6.09;64.19;99562.94;5001102;28;20066;-38
2023/03/08 09:55:00;;;;;;;27.70;13.65;;;;;;;6.37;63.31;99570.97;5001670;28;20033;-40
2023/03/08 09:57:35;;;;;;;28.25;14.10;;;;;;;6.81;62.32;99566.16;5009968;28;20087;-38
2023/03/08 10:00:10;;;;;;;24.48;13.20;;;;;;;6.80;62.26;99574.78;5005775;28;20522;-38
2023/03/08 10:02:40;;;;;;;25.33;13.30;;;;;;;6.88;61.71;99575.72;5005708;28;20054;-38
2023/03/08 10:05:16;;;;;;;27.92;14.23;;;;;;;6.53;62.91;99569.41;5000017;28;20095;-38
2023/03/08 10:07:53;;;;;;;25.48;13.57;;;;;;;6.43;62.97;99556.38;5003733;28;20095;-38
2023/03/08 10:10:45;;;;;;;27.60;14.55;;;;;;;6.85;62.69;99558.41;5000444;28;20034;-39
2023/03/08 10:13:28;;;;;;;25.15;12.90;;;;;;;6.28;62.48;99545.00;4999954;28;20124;-38
2023/03/08 10:16:11;;;;;;;24.98;13.38;;;;;;;6.61;62.19;99532.34;5000468;28;20038;-37
2023/03/08 10:18:49;;;;;;;24.42;13.43;;;;;;;6.63;61.86;99530.63;5003117;28;20036;-42
2023/03/08 10:21:18;;;;;;;26.92;13.73;;;;;;;6.50;62.58;99523.63;5000104;28;20151;-37
2023/03/08 10:23:46;;;;;;;25.23;13.45;;;;;;;6.45;62.63;99512.38;5002889;28;20484;-38
2023/03/08 10:26:13;;;;;;;24.77;12.82;;;;;;;6.34;62.96;99503.66;5000395;28;20040;-38
2023/03/08 10:28:39;;;;;;;22.48;11.98;;;;;;;6.59;62.74;99515.91;5003670;28;20033;-42
2023/03/08 10:31:21;;;;;;;23.38;11.98;;;;;;;6.69;61.80;99519.47;5000242;28;20137;-38
2023/03/08 10:33:49;;;;;;;22.77;12.38;;;;;;;7.07;60.86;99519.72;5003808;28;20034;-41
2023/03/08 10:36:19;;;;;;;24.73;13.45;;;;;;;7.11;60.78;99539.59;5001237;28;20056;-39
2023/03/08 10:38:56;;;;;;;29.80;15.18;;;;;;;7.20;60.41;99532.72;5006445;28;20034;-35
2023/03/08 10:41:21;;;;;;;32.80;15.45;;;;;;;7.02;61.46;99531.75;5002914;28;20142;-39
2023/03/08 10:43:52;;;;;;;31.42;15.75;;;;;;;7.19;60.36;99527.56;5006273;28;20500;-40
2023/03/08 10:46:20;;;;;;;27.92;14.80;;;;;;;7.01;60.11;99530.03;5002787;28;20033;-40
2023/03/08 10:48:46;;;;;;;31.23;15.88;;;;;;;7.53;60.63;99511.28;5006770;28;20041;-39
2023/03/08 10:51:24;;;;;;;29.52;15.20;;;;;;;7.43;59.80;99512.13;4985564;28;20046;-38
2023/03/08 10:53:54;;;;;;;30.17;14.80;;;;;;;7.96;58.53;99519.19;5006714;28;20033;-38
2023/03/08 10:56:35;;;;;;;26.75;13.98;;;;;;;7.87;59.16;99521.78;5003600;28;20231;-38
2023/03/08 10:59:01;;;;;;;24.98;12.80;;;;;;;8.14;58.56;99524.41;5001037;28;20387;-42
2023/03/08 11:01:30;;;;;;;22.48;11.63;;;;;;;7.42;58.70;99518.16;5009336;28;20034;-39
2023/03/08 11:04:02;;;;;;;20.30;10.50;;;;;;;7.61;57.54;99508.72;5004664;28;20121;-42
2023/03/08 11:06:28;;;;;;;20.63;10.15;;;;;;;7.58;58.26;99506.97;5009703;28;20034;-38
2023/03/08 11:08:56;;;;;;;21.27;11.25;;;;;;;7.46;57.71;99500.88;5004652;28;20060;-49
2023/03/08 11:11:22;;;;;;;19.67;10.73;;;;;;;7.81;59.40;99501.00;5006796;28;20033;-40
2023/03/08 11:13:50;;;;;;;23.00;12.43;;;;;;;8.04;58.08;99499.31;5011565;28;20034;-38
2023/03/08 11:16:31;;;;;;;24.50;12.60;;;;;;;7.97;57.90;99511.41;5004442;28;20087;-41
2023/03/08 11:19:15;;;;;;;22.50;12.07;;;;;;;8.05;57.65;99495.88;5005527;28;20068;-38
2023/03/08 11:21:59;;;;;;;24.80;12.50;;;;;;;7.90;57.90;99488.91;5009310;28;20092;-38
2023/03/08 11:24:33;;;;;;;20.90;10.63;;;;;;;7.69;57.92;99489.72;5006688;28;20102;-38
2023/03/08 11:27:13;;;;;;;21.85;10.82;;;;;;;7.72;57.75;99484.56;5004158;28;20038;-39
2023/03/08 11:29:44;;;;;;;23.35;10.25;;;;;;;7.53;58.03;99487.06;5007137;28;20033;-38